Time;durP1;ratioP1;P1;durP2;ratioP2;P2;SDS_P1;SDS_P2;PMS_P1;PMS_P2;Temp;Humidity;BMP_temperature;BMP_pressure;BME280_temperature;BME280_humidity;BME280_pressure;Samples;Min_cycle;Max_cycle;Signal;HPM_P1;HPM_P2
2023/12/21 00:01:46;;;;;;;28.52;26.20;;;;;;;-1.08;100.00;100305.22;5006111;28;20053;-74
2023/12/21 00:04:13;;;;;;;29.08;26.02;;;;;;;-1.06;100.00;100302.47;5013637;28;20053;-74
2023/12/21 00:06:40;;;;;;;31.23;28.38;;;;;;;-1.29;100.00;100307.19;5004474;28;20080;-74
2023/12/21 00:09:07;;;;;;;31.58;28.77;;;;;;;-1.14;100.00;100315.41;5010222;28;20051;-74
2023/12/21 00:11:34;;;;;;;32.10;29.17;;;;;;;-1.26;100.00;100309.50;5012204;28;20116;-74
2023/12/21 00:14:01;;;;;;;38.35;34.97;;;;;;;-1.20;100.00;100312.38;5008981;28;20136;-74
2023/12/21 00:16:28;;;;;;;34.65;31.55;;;;;;;-1.19;100.00;100314.00;5009593;28;20054;-74
2023/12/21 00:18:57;;;;;;;35.90;32.42;;;;;;;-1.14;100.00;100316.22;5010027;28;20053;-73
2023/12/21 00:21:23;;;;;;;37.30;30.42;;;;;;;-1.13;100.00;100315.25;5009820;28;20054;-74
2023/12/21 00:23:50;;;;;;;29.90;27.40;;;;;;;-1.18;100.00;100320.88;5010870;28;20046;-74
2023/12/21 00:26:17;;;;;;;30.67;27.98;;;;;;;-1.01;100.00;100315.91;5011297;28;20495;-74
2023/12/21 00:28:44;;;;;;;30.30;27.55;;;;;;;-0.79;100.00;100317.34;5017687;28;20057;-74
2023/12/21 00:31:11;;;;;;;30.23;27.73;;;;;;;-0.66;100.00;100323.09;5009838;28;20061;-74
2023/12/21 00:33:38;;;;;;;29.50;27.10;;;;;;;-0.49;100.00;100322.31;5004656;28;20057;-75
2023/12/21 00:36:07;;;;;;;32.03;29.25;;;;;;;-0.33;100.00;100328.72;5006031;28;20053;-74
2023/12/21 00:38:34;;;;;;;31.70;29.10;;;;;;;-0.52;100.00;100330.44;5010029;28;20045;-74
2023/12/21 00:41:00;;;;;;;29.58;27.17;;;;;;;-0.76;100.00;100330.09;5010760;28;20443;-73
2023/12/21 00:43:27;;;;;;;32.92;30.23;;;;;;;-0.76;100.00;100320.50;5010403;28;20050;-74
2023/12/21 00:45:54;;;;;;;33.85;30.95;;;;;;;-0.58;100.00;100322.38;5013236;28;20119;-73
2023/12/21 00:48:21;;;;;;;30.42;28.00;;;;;;;-0.55;100.00;100328.09;5009465;28;20049;-74
2023/12/21 00:50:48;;;;;;;31.33;28.80;;;;;;;-0.66;100.00;100335.31;5009221;28;20060;-74
2023/12/21 00:53:17;;;;;;;36.60;33.60;;;;;;;-0.62;100.00;100334.06;5003424;28;20049;-74
2023/12/21 00:55:44;;;;;;;33.50;30.70;;;;;;;-0.76;100.00;100325.72;5017333;28;20060;-74
2023/12/21 00:58:11;;;;;;;30.73;28.15;;;;;;;-0.65;100.00;100332.56;5006355;28;20329;-74
2023/12/21 01:00:38;;;;;;;34.70;31.90;;;;;;;-0.54;100.00;100328.97;5006548;28;20060;-75
2023/12/21 01:03:05;;;;;;;33.45;30.65;;;;;;;-0.37;100.00;100340.41;5006992;28;20075;-74
2023/12/21 01:05:32;;;;;;;33.63;30.92;;;;;;;-0.58;100.00;100332.81;5003966;28;20516;-75
2023/12/21 01:07:59;;;;;;;39.22;36.03;;;;;;;-0.33;100.00;100329.56;5015764;28;20052;-74
2023/12/21 01:10:27;;;;;;;35.50;32.38;;;;;;;-0.39;100.00;100326.66;5008498;28;20062;-74
2023/12/21 01:12:55;;;;;;;35.47;32.58;;;;;;;-0.16;100.00;100320.09;5017569;28;20064;-74
2023/12/21 01:15:22;;;;;;;36.55;33.65;;;;;;;-0.18;100.00;100316.84;5008004;28;20111;-73
2023/12/21 01:17:49;;;;;;;37.75;34.65;;;;;;;-0.03;100.00;100327.59;5011193;28;20049;-73
2023/12/21 01:20:16;;;;;;;39.47;36.38;;;;;;;-0.31;100.00;100338.03;5007647;28;20077;-73
2023/12/21 01:22:43;;;;;;;33.60;30.70;;;;;;;-0.10;100.00;100332.56;5010295;28;20062;-73
2023/12/21 01:25:10;;;;;;;35.05;32.05;;;;;;;0.11;100.00;100323.66;5006395;28;20061;-73
2023/12/21 01:27:38;;;;;;;37.42;34.22;;;;;;;0.23;100.00;100330.31;5002093;28;20061;-74
2023/12/21 01:30:06;;;;;;;36.58;33.63;;;;;;;0.06;100.00;100325.88;5013987;28;20057;-74
2023/12/21 01:32:33;;;;;;;38.67;35.53;;;;;;;-0.21;100.00;100314.53;5008110;28;20535;-74
2023/12/21 01:35:00;;;;;;;36.50;33.38;;;;;;;-0.34;100.00;100309.63;5008322;28;20054;-73
2023/12/21 01:37:27;;;;;;;36.22;33.13;;;;;;;-0.19;100.00;100317.78;5009583;28;20061;-73
2023/12/21 01:39:54;;;;;;;39.63;36.42;;;;;;;0.03;100.00;100315.72;5011694;28;20438;-73
2023/12/21 01:42:21;;;;;;;39.35;36.20;;;;;;;-0.06;100.00;100317.44;5011232;28;20530;-73
2023/12/21 01:44:49;;;;;;;38.95;35.45;;;;;;;0.13;100.00;100319.94;5004346;28;20054;-73
2023/12/21 01:47:17;;;;;;;37.33;34.33;;;;;;;0.26;100.00;100319.56;5010515;28;20057;-73
2023/12/21 01:49:44;;;;;;;38.75;35.55;;;;;;;0.44;100.00;100320.38;5011845;28;20057;-73
2023/12/21 01:52:11;;;;;;;40.17;36.78;;;;;;;0.82;100.00;100322.84;5004163;28;20049;-74
2023/12/21 01:54:38;;;;;;;41.83;38.42;;;;;;;0.92;100.00;100320.94;5007202;28;20051;-74
2023/12/21 01:57:05;;;;;;;43.05;39.38;;;;;;;1.73;100.00;100315.31;5012842;28;20049;-73
2023/12/21 01:59:32;;;;;;;45.33;41.42;;;;;;;2.43;100.00;100312.38;5004647;28;20504;-74
2023/12/21 02:02:01;;;;;;;51.78;47.42;;;;;;;2.78;100.00;100312.19;5012442;28;20056;-74
2023/12/21 02:04:27;;;;;;;51.95;47.33;;;;;;;3.42;100.00;100303.41;5011574;28;20504;-73
2023/12/21 02:06:55;;;;;;;45.38;41.60;;;;;;;3.76;100.00;100314.59;5010447;28;20518;-75
2023/12/21 02:09:21;;;;;;;48.05;44.00;;;;;;;3.80;100.00;100302.75;5004744;28;20421;-73
2023/12/21 02:11:48;;;;;;;43.47;39.83;;;;;;;4.20;100.00;100306.94;5008423;28;20069;-73
2023/12/21 02:14:15;;;;;;;45.22;41.33;;;;;;;3.93;100.00;100302.19;5016436;28;20053;-73
2023/12/21 02:16:50;;;;;;;41.35;37.95;;;;;;;3.75;100.00;100305.06;5010275;28;20056;-74
2023/12/21 02:19:20;;;;;;;46.55;42.67;;;;;;;3.89;100.00;100301.72;5001594;28;20552;-74
2023/12/21 02:21:48;;;;;;;44.65;40.88;;;;;;;3.68;100.00;100302.31;5015991;28;20099;-73
2023/12/21 02:24:18;;;;;;;40.10;36.70;;;;;;;3.74;100.00;100300.81;5004630;28;20051;-74
2023/12/21 02:26:45;;;;;;;43.55;39.85;;;;;;;3.82;100.00;100300.78;5015422;28;20069;-73
2023/12/21 02:29:12;;;;;;;47.88;44.00;;;;;;;3.62;100.00;100290.66;5015730;28;20050;-74
2023/12/21 02:31:39;;;;;;;47.20;43.40;;;;;;;4.24;100.00;100300.38;5006069;28;20454;-74
2023/12/21 02:34:06;;;;;;;48.35;43.65;;;;;;;4.61;100.00;100306.66;5009578;28;20068;-74
2023/12/21 02:36:33;;;;;;;43.22;39.80;;;;;;;4.21;100.00;100305.16;5008081;28;20081;-75
2023/12/21 02:39:00;;;;;;;42.17;38.88;;;;;;;4.21;100.00;100300.72;5011798;28;20403;-73
2023/12/21 02:41:28;;;;;;;43.53;40.03;;;;;;;4.54;100.00;100297.84;5011802;28;20060;-73
2023/12/21 02:43:55;;;;;;;44.75;41.53;;;;;;;4.35;100.00;100302.56;5008083;28;20057;-74
2023/12/21 02:46:25;;;;;;;39.92;37.00;;;;;;;4.19;100.00;100307.94;5009578;28;20054;-73
2023/12/21 02:48:52;;;;;;;43.13;40.17;;;;;;;4.26;100.00;100298.34;5017037;28;20064;-73
2023/12/21 02:51:19;;;;;;;49.67;46.28;;;;;;;4.02;100.00;100299.31;5009492;28;20053;-74
2023/12/21 02:53:46;;;;;;;39.38;36.38;;;;;;;4.31;100.00;100288.16;5003753;28;20041;-74
2023/12/21 02:56:13;;;;;;;42.97;39.72;;;;;;;4.12;100.00;100288.63;5014806;28;20538;-74
2023/12/21 02:58:41;;;;;;;39.22;36.03;;;;;;;4.08;100.00;100292.56;5010770;28;20409;-73
2023/12/21 03:01:08;;;;;;;38.45;35.50;;;;;;;4.15;100.00;100285.63;5006365;28;20069;-73
2023/12/21 03:03:35;;;;;;;40.15;37.25;;;;;;;4.05;100.00;100283.22;5007391;28;20060;-73
2023/12/21 03:06:03;;;;;;;41.55;38.53;;;;;;;4.12;100.00;100291.25;5006068;28;20056;-73
2023/12/21 03:08:29;;;;;;;48.80;44.95;;;;;;;3.99;100.00;100275.22;5012492;28;20400;-74
2023/12/21 03:10:56;;;;;;;42.25;39.30;;;;;;;3.97;100.00;100283.28;5012741;28;20046;-74
2023/12/21 03:13:23;;;;;;;37.65;35.15;;;;;;;4.01;100.00;100283.75;5007415;28;20056;-74
2023/12/21 03:15:51;;;;;;;43.88;40.50;;;;;;;3.66;100.00;100289.34;5016442;28;20042;-74
2023/12/21 03:18:18;;;;;;;41.22;37.92;;;;;;;3.79;100.00;100291.44;5008975;28;20434;-74
2023/12/21 03:20:46;;;;;;;44.60;41.30;;;;;;;3.78;100.00;100302.09;5014141;28;20164;-73
2023/12/21 03:23:13;;;;;;;42.47;39.38;;;;;;;3.86;100.00;100309.94;5011341;28;20446;-73
2023/12/21 03:25:39;;;;;;;40.67;37.47;;;;;;;4.25;100.00;100315.13;5007016;28;20057;-74
2023/12/21 03:28:08;;;;;;;44.17;40.63;;;;;;;3.83;100.00;100315.53;5019662;28;20060;-74
2023/12/21 03:30:35;;;;;;;39.78;36.90;;;;;;;3.82;100.00;100316.53;5011484;28;20053;-72
2023/12/21 03:33:04;;;;;;;39.50;36.30;;;;;;;3.59;100.00;100316.47;5009010;28;20042;-74
2023/12/21 03:35:30;;;;;;;39.65;36.50;;;;;;;3.51;100.00;100309.44;5008040;28;20050;-74
2023/12/21 03:37:57;;;;;;;41.22;37.92;;;;;;;3.56;100.00;100308.91;5008205;28;20045;-74
2023/12/21 03:40:24;;;;;;;41.83;38.40;;;;;;;3.53;100.00;100312.69;5008315;28;20049;-74
2023/12/21 03:42:52;;;;;;;42.60;39.08;;;;;;;3.36;100.00;100313.72;5011185;28;20053;-74
2023/12/21 03:45:19;;;;;;;41.83;38.20;;;;;;;3.38;100.00;100319.66;5004538;28;20053;-73
2023/12/21 03:47:47;;;;;;;43.22;39.75;;;;;;;3.48;100.00;100317.66;5011889;28;20057;-73
2023/12/21 03:50:15;;;;;;;43.42;39.85;;;;;;;3.50;100.00;100331.41;5013229;28;20060;-73
2023/12/21 03:52:42;;;;;;;39.53;36.33;;;;;;;3.55;100.00;100344.06;5000185;28;20551;-73
2023/12/21 03:55:09;;;;;;;38.58;35.38;;;;;;;3.57;100.00;100340.28;5007199;28;20104;-73
2023/12/21 03:57:37;;;;;;;41.78;38.28;;;;;;;3.54;100.00;100335.38;5008616;28;20058;-73
2023/12/21 04:00:04;;;;;;;37.17;33.95;;;;;;;3.55;100.00;100338.81;5005629;28;20275;-74
2023/12/21 04:02:32;;;;;;;35.72;32.63;;;;;;;3.53;100.00;100341.59;5006629;28;20088;-74
2023/12/21 04:04:59;;;;;;;36.97;33.58;;;;;;;3.85;100.00;100356.41;5008247;28;20610;-73
2023/12/21 04:07:27;;;;;;;37.30;33.83;;;;;;;3.60;100.00;100354.84;5014691;28;20400;-74
2023/12/21 04:09:54;;;;;;;38.58;35.20;;;;;;;3.59;100.00;100359.28;5015558;28;20050;-74
2023/12/21 04:12:21;;;;;;;37.60;34.38;;;;;;;3.84;100.00;100369.72;5010960;28;20157;-75
2023/12/21 04:14:47;;;;;;;34.92;31.70;;;;;;;3.70;100.00;100357.31;5012950;28;20050;-75
2023/12/21 04:17:14;;;;;;;34.38;31.38;;;;;;;3.50;100.00;100370.81;5006468;28;20589;-74
2023/12/21 04:19:41;;;;;;;38.40;35.13;;;;;;;3.55;100.00;100359.81;5014604;28;20065;-74
2023/12/21 04:22:08;;;;;;;36.15;33.15;;;;;;;3.62;100.00;100358.94;5014552;28;20049;-75
2023/12/21 04:24:36;;;;;;;35.20;32.20;;;;;;;3.48;100.00;100370.19;5007704;28;20745;-75
2023/12/21 04:27:03;;;;;;;36.20;32.95;;;;;;;3.60;100.00;100371.47;5015042;28;20457;-75
2023/12/21 04:29:30;;;;;;;38.53;35.15;;;;;;;3.42;100.00;100373.47;5007418;28;20053;-75
2023/12/21 04:31:57;;;;;;;37.15;33.65;;;;;;;3.33;100.00;100370.03;5003951;28;20061;-74
2023/12/21 04:34:24;;;;;;;38.42;35.13;;;;;;;3.27;100.00;100368.09;5009447;28;20046;-74
2023/12/21 04:36:51;;;;;;;37.63;34.13;;;;;;;3.37;100.00;100378.41;5004624;28;20065;-75
2023/12/21 04:39:18;;;;;;;35.65;32.45;;;;;;;3.27;100.00;100377.75;5013420;28;20127;-74
2023/12/21 04:41:46;;;;;;;38.03;34.72;;;;;;;3.28;100.00;100374.16;5009726;28;20058;-75
2023/12/21 04:44:13;;;;;;;36.53;33.35;;;;;;;3.66;100.00;100368.16;5002004;28;20443;-74
2023/12/21 04:46:39;;;;;;;35.90;32.67;;;;;;;3.48;100.00;100380.69;5012078;28;20049;-74
2023/12/21 04:49:06;;;;;;;36.70;33.33;;;;;;;3.16;100.00;100379.72;5011547;28;20514;-74
2023/12/21 04:51:33;;;;;;;34.47;31.52;;;;;;;3.32;100.00;100383.31;5006491;28;20058;-75
2023/12/21 04:54:01;;;;;;;34.67;31.88;;;;;;;3.56;100.00;100379.81;5001974;28;20057;-74
2023/12/21 04:56:28;;;;;;;30.80;28.10;;;;;;;3.39;100.00;100393.00;5014561;28;20049;-74
2023/12/21 04:58:57;;;;;;;34.63;31.50;;;;;;;3.44;100.00;100398.56;5010431;28;20050;-75
2023/12/21 05:01:23;;;;;;;30.85;28.25;;;;;;;3.84;100.00;100402.09;5019503;28;20061;-74
2023/12/21 05:03:50;;;;;;;29.95;27.42;;;;;;;4.08;100.00;100414.28;5011005;28;20451;-74
2023/12/21 05:06:17;;;;;;;32.47;29.48;;;;;;;3.47;100.00;100415.78;5006327;28;20050;-73
2023/12/21 05:08:44;;;;;;;31.52;28.75;;;;;;;3.63;100.00;100436.78;5012557;28;20049;-74
2023/12/21 05:11:11;;;;;;;33.65;30.85;;;;;;;3.65;100.00;100447.09;5009408;28;20543;-73
2023/12/21 05:13:38;;;;;;;33.70;30.88;;;;;;;3.39;100.00;100447.31;5009163;28;20038;-74
2023/12/21 05:16:07;;;;;;;30.88;28.27;;;;;;;3.43;100.00;100451.25;5005735;28;20050;-74
2023/12/21 05:18:35;;;;;;;33.88;31.08;;;;;;;3.54;100.00;100450.91;5008495;28;20050;-74
2023/12/21 05:21:02;;;;;;;30.75;27.95;;;;;;;3.58;100.00;100454.84;5005040;28;20078;-74
2023/12/21 05:23:29;;;;;;;32.42;29.83;;;;;;;3.48;100.00;100446.31;5005257;28;20073;-73
2023/12/21 05:25:56;;;;;;;35.00;32.10;;;;;;;3.51;100.00;100453.03;5002950;28;20053;-74
2023/12/21 05:28:23;;;;;;;32.35;29.65;;;;;;;3.63;100.00;100454.31;5001145;28;20061;-73
2023/12/21 05:30:51;;;;;;;35.17;32.20;;;;;;;3.63;100.00;100449.91;4992593;28;20065;-73
2023/12/21 05:33:20;;;;;;;36.00;33.03;;;;;;;3.72;100.00;100440.19;5001743;28;20471;-73
2023/12/21 05:35:47;;;;;;;32.65;30.05;;;;;;;3.78;100.00;100452.69;4996462;28;20049;-73
2023/12/21 05:38:14;;;;;;;31.48;28.98;;;;;;;3.60;100.00;100455.50;4997367;28;20056;-74
2023/12/21 05:40:41;;;;;;;31.80;29.30;;;;;;;3.62;100.00;100445.63;4994273;28;20062;-74
2023/12/21 05:43:08;;;;;;;32.33;29.83;;;;;;;3.61;100.00;100451.88;5002316;28;20042;-75
2023/12/21 05:45:35;;;;;;;30.08;27.75;;;;;;;3.83;100.00;100457.41;5002826;28;20589;-75
2023/12/21 05:48:01;;;;;;;31.95;29.63;;;;;;;3.72;100.00;100457.75;4997415;28;20050;-74
2023/12/21 05:50:30;;;;;;;31.42;29.02;;;;;;;3.80;100.00;100461.19;4999886;28;20530;-75
2023/12/21 05:52:56;;;;;;;31.42;29.10;;;;;;;4.01;100.00;100462.47;4989788;28;20061;-74
2023/12/21 05:55:23;;;;;;;32.33;29.92;;;;;;;3.90;100.00;100467.09;4994665;28;20062;-75
2023/12/21 05:57:50;;;;;;;30.30;28.00;;;;;;;3.63;100.00;100460.41;4999115;28;20050;-75
2023/12/21 06:00:18;;;;;;;32.22;29.65;;;;;;;3.68;100.00;100465.97;4993174;28;20054;-74
2023/12/21 06:02:45;;;;;;;30.75;28.45;;;;;;;3.88;100.00;100455.91;5002324;28;20538;-74
2023/12/21 06:05:12;;;;;;;32.42;29.65;;;;;;;3.74;100.00;100461.03;5002142;28;20424;-74
2023/12/21 06:07:40;;;;;;;31.02;28.63;;;;;;;3.80;100.00;100463.00;4998412;28;20046;-75
2023/12/21 06:10:09;;;;;;;34.60;32.00;;;;;;;3.96;100.00;100462.13;5004339;28;20050;-74
2023/12/21 06:12:36;;;;;;;32.97;30.77;;;;;;;3.65;100.00;100453.16;5004708;28;20050;-74
2023/12/21 06:15:04;;;;;;;31.90;29.70;;;;;;;3.75;100.00;100453.00;5008472;28;20050;-74
2023/12/21 06:17:31;;;;;;;33.55;31.05;;;;;;;3.58;100.00;100452.22;5013452;28;20049;-73
2023/12/21 06:19:58;;;;;;;34.65;31.88;;;;;;;3.59;100.00;100463.53;5011005;28;21220;-74
2023/12/21 06:22:25;;;;;;;31.90;29.73;;;;;;;3.56;100.00;100456.81;5018530;28;20049;-75
2023/12/21 06:24:53;;;;;;;31.48;29.30;;;;;;;3.57;100.00;100466.34;5007239;28;20056;-75
2023/12/21 06:27:20;;;;;;;32.70;30.50;;;;;;;3.64;100.00;100469.94;5006379;28;20458;-75
2023/12/21 06:29:47;;;;;;;35.13;32.33;;;;;;;3.58;100.00;100478.47;5006752;28;20634;-75
2023/12/21 06:32:14;;;;;;;31.23;29.13;;;;;;;3.51;100.00;100485.38;5007292;28;20050;-75
2023/12/21 06:34:41;;;;;;;33.60;31.15;;;;;;;3.61;100.00;100490.47;5007963;28;20132;-75
2023/12/21 06:37:08;;;;;;;32.20;30.10;;;;;;;3.62;100.00;100495.53;5009313;28;20049;-73
2023/12/21 06:39:35;;;;;;;34.80;32.38;;;;;;;3.82;100.00;100496.00;4992889;28;20054;-74
2023/12/21 06:42:04;;;;;;;36.17;33.25;;;;;;;3.60;100.00;100483.53;5002710;28;20061;-75
2023/12/21 06:44:31;;;;;;;34.75;32.20;;;;;;;3.60;100.00;100486.16;4993426;28;20164;-74
2023/12/21 06:46:58;;;;;;;34.80;32.40;;;;;;;3.64;100.00;100488.31;5000899;28;20042;-74
2023/12/21 06:49:25;;;;;;;34.30;32.00;;;;;;;3.59;100.00;100487.97;5001832;28;20133;-75
2023/12/21 06:51:51;;;;;;;33.65;31.33;;;;;;;3.54;100.00;100490.31;5001015;28;20064;-73
2023/12/21 06:54:18;;;;;;;33.65;31.35;;;;;;;3.61;100.00;100490.47;4993491;28;20080;-74
2023/12/21 06:56:45;;;;;;;32.42;30.17;;;;;;;3.53;100.00;100503.59;5004356;28;20078;-74
2023/12/21 06:59:14;;;;;;;35.13;32.72;;;;;;;3.64;100.00;100508.50;4995784;28;20061;-74
2023/12/21 07:01:41;;;;;;;33.45;31.15;;;;;;;3.63;100.00;100512.09;4998460;28;20083;-73
2023/12/21 07:04:08;;;;;;;33.65;31.15;;;;;;;3.43;100.00;100512.44;4988026;28;20053;-75
2023/12/21 07:06:35;;;;;;;36.90;34.30;;;;;;;3.57;100.00;100515.38;5002322;28;20111;-75
2023/12/21 07:09:02;;;;;;;36.95;34.35;;;;;;;3.62;100.00;100526.22;4996791;28;20054;-74
2023/12/21 07:11:28;;;;;;;34.38;31.88;;;;;;;3.45;100.00;100530.69;5003182;28;20427;-74
2023/12/21 07:13:55;;;;;;;34.03;31.63;;;;;;;3.56;100.00;100530.34;4996821;28;20045;-74
2023/12/21 07:16:24;;;;;;;36.35;33.70;;;;;;;3.42;100.00;100525.75;4993586;28;20479;-75
2023/12/21 07:18:51;;;;;;;35.33;32.92;;;;;;;3.47;100.00;100528.69;4997134;28;20077;-74
2023/12/21 07:21:18;;;;;;;32.63;30.25;;;;;;;3.36;100.00;100521.97;4994224;28;20050;-74
2023/12/21 07:23:44;;;;;;;34.88;32.22;;;;;;;3.40;100.00;100527.72;4999069;28;20425;-74
2023/12/21 07:26:11;;;;;;;36.22;33.47;;;;;;;3.53;100.00;100532.47;5001563;28;20428;-74
2023/12/21 07:28:40;;;;;;;32.83;30.33;;;;;;;3.56;100.00;100535.59;5000772;28;20054;-74
2023/12/21 07:31:06;;;;;;;32.28;29.10;;;;;;;3.62;100.00;100527.03;4992151;28;20082;-75
2023/12/21 07:33:35;;;;;;;35.95;33.45;;;;;;;3.48;100.00;100540.00;4998759;28;20100;-74
2023/12/21 07:36:02;;;;;;;36.28;33.67;;;;;;;3.51;100.00;100542.31;4995230;28;20202;-75
2023/12/21 07:38:29;;;;;;;32.63;30.40;;;;;;;3.60;100.00;100534.28;5001955;28;20586;-74
2023/12/21 07:40:56;;;;;;;33.35;30.67;;;;;;;3.56;100.00;100540.84;4998378;28;20046;-74
2023/12/21 07:43:23;;;;;;;33.00;30.80;;;;;;;3.44;100.00;100542.16;5001407;28;20060;-74
2023/12/21 07:45:50;;;;;;;33.08;30.65;;;;;;;3.52;100.00;100547.41;4996784;28;20046;-74
2023/12/21 07:48:17;;;;;;;33.60;31.30;;;;;;;3.58;100.00;100548.56;5003382;28;20054;-73
2023/12/21 07:50:46;;;;;;;35.08;32.25;;;;;;;3.66;100.00;100559.91;4998284;28;20433;-74
2023/12/21 07:53:12;;;;;;;32.97;30.77;;;;;;;3.57;100.00;100557.41;4995668;28;20527;-73
2023/12/21 07:55:40;;;;;;;34.42;31.73;;;;;;;3.64;100.00;100547.91;4988348;28;20050;-74
2023/12/21 07:58:07;;;;;;;36.25;33.58;;;;;;;3.69;100.00;100548.22;5001905;28;20136;-74
2023/12/21 08:00:34;;;;;;;33.13;30.83;;;;;;;3.77;100.00;100540.34;4996796;28;20451;-73
2023/12/21 08:03:01;;;;;;;34.17;31.88;;;;;;;3.73;100.00;100541.66;5004564;28;20057;-73
2023/12/21 08:05:28;;;;;;;35.20;32.75;;;;;;;3.78;100.00;100538.53;5002416;28;20558;-74
2023/12/21 08:07:56;;;;;;;36.00;33.10;;;;;;;3.98;100.00;100539.81;4991126;28;20050;-74
2023/12/21 08:10:23;;;;;;;34.08;31.58;;;;;;;4.05;100.00;100546.03;4997502;28;20054;-74
2023/12/21 08:12:50;;;;;;;32.92;30.52;;;;;;;4.02;100.00;100550.81;5005828;28;20050;-73
2023/12/21 08:15:17;;;;;;;32.80;30.50;;;;;;;4.30;100.00;100551.25;5000189;28;20065;-74
2023/12/21 08:17:47;;;;;;;31.08;28.83;;;;;;;4.18;100.00;100549.97;4999365;28;20045;-73
2023/12/21 08:20:15;;;;;;;32.05;29.95;;;;;;;4.18;100.00;100545.53;5005210;28;20526;-74
2023/12/21 08:22:42;;;;;;;33.60;31.40;;;;;;;4.09;100.00;100547.38;4996824;28;20169;-75
2023/12/21 08:25:10;;;;;;;35.63;33.20;;;;;;;4.23;100.00;100545.84;5000517;28;20425;-73
2023/12/21 08:27:37;;;;;;;32.28;30.08;;;;;;;4.33;100.00;100543.03;5001537;28;20443;-74
2023/12/21 08:30:06;;;;;;;31.63;29.65;;;;;;;4.30;100.00;100540.75;4995128;28;20084;-75
2023/12/21 08:32:33;;;;;;;35.35;32.40;;;;;;;4.19;100.00;100534.03;4998477;28;20498;-73
2023/12/21 08:35:01;;;;;;;32.55;30.45;;;;;;;4.27;100.00;100541.09;5004987;28;20050;-73
2023/12/21 08:37:28;;;;;;;30.48;28.38;;;;;;;4.56;100.00;100540.47;4999032;28;20148;-73
2023/12/21 08:39:55;;;;;;;29.10;27.20;;;;;;;4.55;100.00;100552.81;4999318;28;20053;-73
2023/12/21 08:42:23;;;;;;;30.33;28.38;;;;;;;4.67;100.00;100545.38;4998881;28;20053;-75
2023/12/21 08:44:50;;;;;;;31.42;29.42;;;;;;;4.79;100.00;100541.34;5004594;28;20054;-73
2023/12/21 08:47:17;;;;;;;30.33;28.35;;;;;;;4.91;100.00;100538.34;5005364;28;20057;-74
2023/12/21 08:49:43;;;;;;;28.95;26.95;;;;;;;5.25;100.00;100541.41;5000921;28;20441;-75
2023/12/21 08:52:10;;;;;;;28.63;26.90;;;;;;;4.33;100.00;100549.13;4996110;28;20046;-75
2023/12/21 08:54:37;;;;;;;30.63;28.73;;;;;;;4.55;100.00;100533.59;4994283;28;20054;-73
2023/12/21 08:57:05;;;;;;;30.15;28.15;;;;;;;4.56;100.00;100541.28;4995091;28;20509;-73
2023/12/21 08:59:33;;;;;;;30.75;28.52;;;;;;;4.57;100.00;100536.88;4998392;28;20453;-73
2023/12/21 09:02:00;;;;;;;30.90;28.90;;;;;;;4.55;100.00;100539.66;4995030;28;20122;-74
2023/12/21 09:04:26;;;;;;;32.67;30.48;;;;;;;4.69;100.00;100539.91;5000889;28;20065;-73
2023/12/21 09:06:53;;;;;;;30.88;28.88;;;;;;;4.36;100.00;100530.38;4994153;28;20054;-73
2023/12/21 09:09:20;;;;;;;31.08;28.27;;;;;;;4.47;100.00;100528.34;4990212;28;20129;-74
2023/12/21 09:11:49;;;;;;;31.60;29.15;;;;;;;4.59;100.00;100524.34;4995836;28;20054;-74
2023/12/21 09:14:16;;;;;;;28.08;26.15;;;;;;;4.59;100.00;100513.81;4991804;28;20058;-74
2023/12/21 09:16:44;;;;;;;30.95;28.45;;;;;;;4.59;100.00;100512.00;5003274;28;20046;-74
2023/12/21 09:19:11;;;;;;;28.52;26.73;;;;;;;4.98;100.00;100510.31;4993397;28;20050;-74
2023/12/21 09:21:39;;;;;;;33.45;31.35;;;;;;;5.38;100.00;100513.66;4998927;28;20069;-74
2023/12/21 09:24:06;;;;;;;29.52;27.58;;;;;;;4.81;100.00;100497.28;4998885;28;20494;-74
2023/12/21 09:26:33;;;;;;;29.88;27.77;;;;;;;5.22;100.00;100504.06;4998783;28;20523;-73
2023/12/21 09:29:03;;;;;;;31.50;29.17;;;;;;;6.36;100.00;100510.09;4999951;28;20046;-74
2023/12/21 09:31:30;;;;;;;27.20;25.30;;;;;;;6.09;100.00;100508.94;4999931;28;20078;-74
2023/12/21 09:33:59;;;;;;;28.20;26.40;;;;;;;6.08;100.00;100496.72;4997916;28;20073;-74
2023/12/21 09:36:26;;;;;;;29.00;27.20;;;;;;;6.27;100.00;100488.28;4995266;28;20050;-74
2023/12/21 09:38:53;;;;;;;27.13;25.52;;;;;;;5.76;100.00;100487.31;4995825;28;20054;-73
2023/12/21 09:41:19;;;;;;;31.92;29.83;;;;;;;6.14;100.00;100491.56;4994920;28;20054;-75
2023/12/21 09:43:48;;;;;;;28.17;26.33;;;;;;;5.65;100.00;100494.66;4998859;28;20416;-74
2023/12/21 09:46:16;;;;;;;26.92;25.13;;;;;;;6.49;100.00;100488.34;4994013;28;20054;-73
2023/12/21 09:48:45;;;;;;;25.40;23.80;;;;;;;6.41;100.00;100487.47;4993052;28;20051;-74
2023/12/21 09:51:15;;;;;;;26.85;25.05;;;;;;;6.02;100.00;100484.28;5000718;28;20050;-74
2023/12/21 09:53:43;;;;;;;29.67;27.70;;;;;;;6.18;100.00;100492.00;4990730;28;20056;-73
2023/12/21 09:56:13;;;;;;;27.73;25.77;;;;;;;5.92;100.00;100493.22;5000300;28;20562;-74
2023/12/21 09:58:40;;;;;;;27.38;25.73;;;;;;;6.16;100.00;100489.53;4995658;28;20209;-73
2023/12/21 10:01:07;;;;;;;26.25;24.60;;;;;;;5.80;100.00;100481.50;4993099;28;20413;-73
2023/12/21 10:03:35;;;;;;;26.08;24.48;;;;;;;5.94;100.00;100480.72;4994155;28;20057;-73
2023/12/21 10:06:03;;;;;;;29.50;26.92;;;;;;;6.13;100.00;100489.91;5004342;28;20053;-74
2023/12/21 10:08:33;;;;;;;30.63;28.40;;;;;;;6.45;100.00;100485.25;4997197;28;20535;-72
2023/12/21 10:11:02;;;;;;;25.05;23.55;;;;;;;6.16;100.00;100481.63;4998820;28;20049;-74
2023/12/21 10:13:29;;;;;;;27.25;25.58;;;;;;;6.17;100.00;100474.53;4993329;28;20639;-74
2023/12/21 10:15:59;;;;;;;29.13;27.33;;;;;;;5.97;100.00;100469.81;4996461;28;21219;-74
2023/12/21 10:18:27;;;;;;;26.48;24.63;;;;;;;5.87;100.00;100457.88;4995660;28;20049;-74
2023/12/21 10:20:55;;;;;;;25.15;23.70;;;;;;;6.31;100.00;100443.88;4997439;28;20054;-72
2023/12/21 10:23:21;;;;;;;26.90;25.30;;;;;;;5.97;100.00;100440.00;4995241;28;20062;-74
2023/12/21 10:25:50;;;;;;;26.88;24.60;;;;;;;6.38;100.00;100435.06;5001892;28;20060;-74
2023/12/21 10:28:17;;;;;;;26.13;24.13;;;;;;;7.01;100.00;100427.38;4998107;28;20050;-74
2023/12/21 10:30:44;;;;;;;26.25;24.50;;;;;;;6.90;100.00;100425.25;4992420;28;20054;-74
2023/12/21 10:33:12;;;;;;;26.85;25.13;;;;;;;6.73;100.00;100421.22;4994904;28;20050;-74
2023/12/21 10:35:39;;;;;;;25.13;23.45;;;;;;;6.18;100.00;100411.06;4996013;28;20058;-74
2023/12/21 10:38:06;;;;;;;26.65;24.67;;;;;;;6.72;100.00;100415.13;4997158;28;20440;-74
2023/12/21 10:40:34;;;;;;;24.67;22.92;;;;;;;7.02;100.00;100409.69;4994035;28;20057;-74
2023/12/21 10:43:04;;;;;;;22.90;21.40;;;;;;;7.20;100.00;100419.81;5000759;28;20413;-75
2023/12/21 10:45:31;;;;;;;20.55;19.00;;;;;;;8.32;100.00;100408.25;4987453;28;20054;-75
2023/12/21 10:48:06;;;;;;;20.38;19.02;;;;;;;7.58;100.00;100409.72;5003558;28;20417;-74
2023/12/21 10:50:35;;;;;;;25.83;24.17;;;;;;;8.03;100.00;100394.31;5002606;28;20057;-74
2023/12/21 10:53:02;;;;;;;27.27;24.70;;;;;;;7.99;100.00;100396.53;5003908;28;20115;-74
2023/12/21 10:55:31;;;;;;;23.27;21.77;;;;;;;6.62;100.00;100399.56;4997643;28;20507;-74
2023/12/21 10:58:01;;;;;;;23.73;22.23;;;;;;;7.14;100.00;100396.78;5003463;28;20052;-74
2023/12/21 11:00:30;;;;;;;23.05;21.50;;;;;;;6.91;100.00;100394.38;4994993;28;20070;-74
2023/12/21 11:02:59;;;;;;;23.50;22.10;;;;;;;6.35;100.00;100398.47;5003928;28;20054;-73
2023/12/21 11:05:27;;;;;;;25.98;24.17;;;;;;;6.91;100.00;100391.75;5004638;28;20050;-73
2023/12/21 11:07:56;;;;;;;24.73;23.02;;;;;;;6.85;100.00;100382.75;5000838;28;20057;-75
2023/12/21 11:10:25;;;;;;;24.42;22.83;;;;;;;8.24;100.00;100386.25;5002166;28;20594;-74